Time;durP1;ratioP1;P1;durP2;ratioP2;P2;SDS_P1;SDS_P2;PMS_P1;PMS_P2;Temp;Humidity;BMP_temperature;BMP_pressure;BME280_temperature;BME280_humidity;BME280_pressure;Samples;Min_cycle;Max_cycle;Signal;HPM_P1;HPM_P2
2022/02/13 00:03:51;;;;;;;27.77;21.08;;;;;;;;;;143728;613;46020;-70
2022/02/13 00:06:18;;;;;;;27.70;20.23;;;;;;;;;;143728;566;46020;-69
2022/02/13 00:08:45;;;;;;;19.17;16.12;;;;;;;;;;143730;582;46021;-68
2022/02/13 00:11:13;;;;;;;32.47;23.52;;;;;;;;;;143728;592;46020;-68
2022/02/13 00:13:39;;;;;;;20.48;16.62;;;;;;;;;;143727;579;46012;-69
2022/02/13 00:16:06;;;;;;;22.08;16.87;;;;;;;;;;143726;652;46021;-69
2022/02/13 00:18:33;;;;;;;32.00;23.25;;;;;;;;;;143730;613;46020;-68
2022/02/13 00:21:00;;;;;;;28.62;19.33;;;;;;;;;;143727;603;46022;-68
2022/02/13 00:23:27;;;;;;;22.70;17.25;;;;;;;;;;143726;618;46021;-69
2022/02/13 00:25:54;;;;;;;29.42;20.30;;;;;;;;;;143729;579;46012;-69
2022/02/13 00:28:21;;;;;;;28.12;19.50;;;;;;;;;;143729;648;46020;-69
2022/02/13 00:30:48;;;;;;;26.58;19.12;;;;;;;;;;143729;586;46020;-68
2022/02/13 00:33:16;;;;;;;18.20;14.87;;;;;;;;;;143726;655;46020;-69
2022/02/13 00:35:43;;;;;;;24.70;18.73;;;;;;;;;;143728;643;46019;-69
2022/02/13 00:38:10;;;;;;;21.90;16.80;;;;;;;;;;143730;571;46021;-69
2022/02/13 00:40:37;;;;;;;25.83;19.87;;;;;;;;;;143729;654;46020;-68
2022/02/13 00:43:04;;;;;;;22.98;18.87;;;;;;;;;;143726;570;46020;-69
2022/02/13 00:45:32;;;;;;;23.00;17.90;;;;;;;;;;143730;613;46018;-68
2022/02/13 00:47:59;;;;;;;25.90;21.77;;;;;;;;;;143730;659;46020;-68
2022/02/13 00:50:26;;;;;;;30.55;23.30;;;;;;;;;;143727;564;46020;-68
2022/02/13 00:52:53;;;;;;;24.17;19.42;;;;;;;;;;143725;600;46021;-68
2022/02/13 00:55:20;;;;;;;23.45;19.65;;;;;;;;;;143726;670;46018;-67
2022/02/13 00:57:47;;;;;;;27.37;20.73;;;;;;;;;;143731;628;46014;-67
2022/02/13 01:00:15;;;;;;;26.02;20.20;;;;;;;;;;143727;580;46021;-67
2022/02/13 01:02:42;;;;;;;21.25;17.55;;;;;;;;;;143726;737;46020;-68
2022/02/13 01:05:09;;;;;;;24.90;20.62;;;;;;;;;;143728;608;46018;-68
2022/02/13 01:07:36;;;;;;;26.30;22.35;;;;;;;;;;143731;580;46014;-68
2022/02/13 01:10:04;;;;;;;25.73;19.77;;;;;;;;;;143728;585;46020;-67
2022/02/13 01:12:32;;;;;;;24.92;20.35;;;;;;;;;;143727;566;46020;-68
2022/02/13 01:14:59;;;;;;;25.05;19.92;;;;;;;;;;143728;625;46018;-68
2022/02/13 01:17:26;;;;;;;24.23;19.08;;;;;;;;;;143730;570;46020;-68
2022/02/13 01:19:53;;;;;;;25.95;20.52;;;;;;;;;;143729;655;46020;-68
2022/02/13 01:22:20;;;;;;;35.15;27.15;;;;;;;;;;143727;645;46021;-69
2022/02/13 01:24:47;;;;;;;43.75;31.17;;;;;;;;;;143728;566;46018;-68
2022/02/13 01:27:14;;;;;;;48.92;32.50;;;;;;;;;;143732;602;46014;-69
2022/02/13 01:29:42;;;;;;;48.00;33.55;;;;;;;;;;143729;641;46021;-68
2022/02/13 01:32:10;;;;;;;46.67;32.38;;;;;;;;;;143726;569;46020;-68
2022/02/13 01:34:37;;;;;;;53.55;35.58;;;;;;;;;;143728;621;46018;-68
2022/02/13 01:37:04;;;;;;;55.60;38.20;;;;;;;;;;143731;587;46012;-69
2022/02/13 01:39:32;;;;;;;62.28;40.35;;;;;;;;;;143728;643;46020;-69
2022/02/13 01:41:59;;;;;;;52.72;35.03;;;;;;;;;;143725;617;46020;-68
2022/02/13 01:44:32;;;;;;;57.00;37.72;;;;;;;;;;143727;579;46021;-69
2022/02/13 01:47:00;;;;;;;69.93;43.53;;;;;;;;;;143731;579;46014;-69
2022/02/13 01:49:27;;;;;;;66.03;44.95;;;;;;;;;;143729;602;46020;-68
2022/02/13 01:51:58;;;;;;;57.97;40.70;;;;;;;;;;143725;565;46021;-68
2022/02/13 01:54:25;;;;;;;55.95;36.88;;;;;;;;;;143725;623;47910;-68
2022/02/13 01:56:52;;;;;;;48.28;33.35;;;;;;;;;;143731;565;46014;-68
2022/02/13 01:59:19;;;;;;;61.65;40.42;;;;;;;;;;143728;608;46021;-68
2022/02/13 02:01:46;;;;;;;49.40;34.35;;;;;;;;;;143726;571;46020;-68
2022/02/13 02:04:13;;;;;;;44.65;29.75;;;;;;;;;;143726;569;46020;-68
2022/02/13 02:06:40;;;;;;;37.97;26.92;;;;;;;;;;143731;628;46014;-68
2022/02/13 02:09:07;;;;;;;34.85;26.12;;;;;;;;;;143729;583;46020;-68
2022/02/13 02:11:35;;;;;;;31.23;24.92;;;;;;;;;;143725;589;46020;-67
2022/02/13 02:14:02;;;;;;;37.55;26.55;;;;;;;;;;143728;576;46895;-68
2022/02/13 02:16:29;;;;;;;31.30;24.42;;;;;;;;;;143728;643;46020;-68
2022/02/13 02:18:57;;;;;;;33.25;22.92;;;;;;;;;;143727;585;46020;-68
2022/02/13 02:21:24;;;;;;;30.58;21.87;;;;;;;;;;143726;572;46021;-67
2022/02/13 02:23:51;;;;;;;28.27;21.37;;;;;;;;;;143727;609;46020;-66
2022/02/13 02:26:19;;;;;;;26.70;20.05;;;;;;;;;;143731;657;46014;-67
2022/02/13 02:28:46;;;;;;;26.05;20.25;;;;;;;;;;143729;569;46021;-66
2022/02/13 02:31:14;;;;;;;29.17;21.23;;;;;;;;;;143727;564;46917;-67
2022/02/13 02:33:41;;;;;;;29.55;21.25;;;;;;;;;;143729;629;46020;-67
2022/02/13 02:36:18;;;;;;;27.23;20.75;;;;;;;;;;143729;569;46020;-68
2022/02/13 02:38:47;;;;;;;27.45;21.15;;;;;;;;;;143727;620;46022;-68
2022/02/13 02:41:14;;;;;;;30.08;21.75;;;;;;;;;;143726;571;46012;-67
2022/02/13 02:43:42;;;;;;;31.25;22.45;;;;;;;;;;143729;626;46020;-68
2022/02/13 02:46:11;;;;;;;29.83;21.55;;;;;;;;;;143730;570;46020;-68
2022/02/13 02:48:38;;;;;;;28.73;20.17;;;;;;;;;;143730;623;45022;-68
2022/02/13 02:51:06;;;;;;;26.35;19.45;;;;;;;;;;143729;589;45916;-68
2022/02/13 02:53:36;;;;;;;21.98;16.98;;;;;;;;;;143728;581;46018;-67
2022/02/13 02:56:09;;;;;;;22.40;16.90;;;;;;;;;;143732;579;45020;-68
2022/02/13 02:58:40;;;;;;;28.15;20.17;;;;;;;;;;143729;564;46021;-67
2022/02/13 03:03:38;;;;;;;36.15;23.25;;;;;;;;;;143729;601;45932;-68
2022/02/13 03:06:06;;;;;;;28.75;21.48;;;;;;;;;;143731;622;46019;-67
2022/02/13 03:08:45;;;;;;;26.23;18.95;;;;;;;;;;143730;590;46014;-68
2022/02/13 03:16:17;;;;;;;20.55;14.13;;;;;;;;;;143742;585;46018;-68
2022/02/13 03:18:44;;;;;;;20.00;15.02;;;;;;;;;;143728;596;46022;-69
2022/02/13 03:21:12;;;;;;;20.62;15.98;;;;;;;;;;143726;585;46916;-69
2022/02/13 03:23:38;;;;;;;25.85;15.68;;;;;;;;;;143727;569;46020;-69
2022/02/13 03:26:06;;;;;;;29.65;17.50;;;;;;;;;;143732;661;46014;-69
2022/02/13 03:28:34;;;;;;;32.72;21.05;;;;;;;;;;143726;632;46021;-69
2022/02/13 03:31:01;;;;;;;24.95;18.15;;;;;;;;;;143728;588;46012;-67
2022/02/13 03:33:28;;;;;;;26.08;15.93;;;;;;;;;;143728;564;46012;-69
2022/02/13 03:35:56;;;;;;;20.48;14.77;;;;;;;;;;143730;577;46014;-67
2022/02/13 03:38:23;;;;;;;21.62;14.50;;;;;;;;;;143728;629;46020;-69
2022/02/13 03:40:52;;;;;;;18.90;13.90;;;;;;;;;;143728;564;46012;-68
2022/02/13 03:43:20;;;;;;;19.77;13.05;;;;;;;;;;143729;606;46021;-68
2022/02/13 03:45:46;;;;;;;17.08;12.15;;;;;;;;;;143731;564;46020;-69
2022/02/13 03:48:14;;;;;;;17.45;13.13;;;;;;;;;;143730;570;46020;-68
2022/02/13 03:50:40;;;;;;;18.27;12.52;;;;;;;;;;143728;678;46021;-69
2022/02/13 03:53:09;;;;;;;16.15;11.23;;;;;;;;;;143727;587;46038;-67
2022/02/13 03:55:36;;;;;;;16.30;10.95;;;;;;;;;;143731;563;46014;-69
2022/02/13 03:58:03;;;;;;;15.05;11.68;;;;;;;;;;143729;575;46019;-69
2022/02/13 04:00:36;;;;;;;19.33;14.95;;;;;;;;;;143726;630;46022;-70
2022/02/13 04:03:08;;;;;;;20.02;14.35;;;;;;;;;;143728;577;46018;-68
2022/02/13 04:05:37;;;;;;;17.50;14.32;;;;;;;;;;143728;569;46014;-69
2022/02/13 04:08:07;;;;;;;18.77;15.02;;;;;;;;;;143728;595;46020;-68
2022/02/13 04:15:39;;;;;;;20.08;12.50;;;;;;;;;;143741;577;46022;-67
2022/02/13 04:18:18;;;;;;;19.58;11.95;;;;;;;;;;143729;565;46012;-68
2022/02/13 04:20:48;;;;;;;15.48;12.02;;;;;;;;;;143728;584;46012;-69
2022/02/13 04:23:15;;;;;;;22.87;14.65;;;;;;;;;;143729;572;46018;-69
2022/02/13 04:25:43;;;;;;;17.42;12.10;;;;;;;;;;143732;575;45028;-68
2022/02/13 04:28:21;;;;;;;15.93;12.05;;;;;;;;;;143727;585;46019;-68
2022/02/13 04:30:51;;;;;;;16.95;11.98;;;;;;;;;;143724;601;46022;-69
2022/02/13 04:33:19;;;;;;;15.38;11.50;;;;;;;;;;143727;682;46018;-69
2022/02/13 04:35:45;;;;;;;14.13;11.15;;;;;;;;;;143731;573;46014;-69
2022/02/13 04:38:13;;;;;;;18.58;11.00;;;;;;;;;;143728;596;46020;-69
2022/02/13 04:40:40;;;;;;;13.23;9.95;;;;;;;;;;143728;641;46012;-68
2022/02/13 04:43:08;;;;;;;15.40;10.77;;;;;;;;;;143727;585;46021;-68
2022/02/13 04:45:36;;;;;;;17.42;10.60;;;;;;;;;;143730;648;46012;-68
2022/02/13 04:48:02;;;;;;;15.52;10.63;;;;;;;;;;143726;564;46020;-68
2022/02/13 04:50:30;;;;;;;16.83;11.20;;;;;;;;;;143730;593;46023;-68
2022/02/13 04:52:57;;;;;;;16.12;11.07;;;;;;;;;;143729;648;46016;-67
2022/02/13 04:55:24;;;;;;;16.50;12.00;;;;;;;;;;143730;614;46022;-69
2022/02/13 04:57:52;;;;;;;15.05;11.25;;;;;;;;;;143729;654;46019;-68
2022/02/13 05:00:19;;;;;;;15.95;10.80;;;;;;;;;;143726;572;46047;-67
2022/02/13 05:02:47;;;;;;;14.95;10.35;;;;;;;;;;143728;623;46016;-68
2022/02/13 05:05:15;;;;;;;15.15;10.98;;;;;;;;;;143731;622;46023;-68
2022/02/13 05:07:42;;;;;;;14.20;10.85;;;;;;;;;;143729;577;46018;-67
2022/02/13 05:10:09;;;;;;;17.73;11.60;;;;;;;;;;143726;573;46012;-67
2022/02/13 05:12:36;;;;;;;15.43;10.07;;;;;;;;;;143726;608;46019;-69
2022/02/13 05:15:04;;;;;;;15.07;10.65;;;;;;;;;;143730;589;46022;-69
2022/02/13 05:17:35;;;;;;;18.02;10.70;;;;;;;;;;143727;565;47018;-69
2022/02/13 05:20:06;;;;;;;17.17;10.40;;;;;;;;;;143727;569;46013;-67
2022/02/13 05:22:33;;;;;;;15.55;9.75;;;;;;;;;;143729;572;46016;-67
2022/02/13 05:24:59;;;;;;;20.48;10.30;;;;;;;;;;143730;585;46014;-67
2022/02/13 05:27:26;;;;;;;15.70;10.05;;;;;;;;;;143728;577;46020;-67
2022/02/13 05:29:53;;;;;;;13.75;10.32;;;;;;;;;;143727;646;46010;-67
2022/02/13 05:32:20;;;;;;;16.60;9.43;;;;;;;;;;143726;612;46018;-68
2022/02/13 05:34:47;;;;;;;14.25;8.63;;;;;;;;;;143732;590;46010;-68
2022/02/13 05:37:14;;;;;;;13.65;9.13;;;;;;;;;;143729;588;46018;-68
2022/02/13 05:39:42;;;;;;;12.70;8.88;;;;;;;;;;143727;592;46022;-68
2022/02/13 05:42:10;;;;;;;13.57;9.23;;;;;;;;;;143727;640;46016;-67
2022/02/13 05:44:38;;;;;;;13.30;9.15;;;;;;;;;;143730;569;46012;-68
2022/02/13 05:47:05;;;;;;;13.95;9.65;;;;;;;;;;143728;578;46020;-67
2022/02/13 05:49:32;;;;;;;14.95;9.93;;;;;;;;;;143728;630;46023;-68
2022/02/13 05:51:59;;;;;;;14.40;9.55;;;;;;;;;;143727;615;46016;-69
2022/02/13 05:54:26;;;;;;;13.20;9.65;;;;;;;;;;143732;573;46012;-68
2022/02/13 05:56:53;;;;;;;14.00;8.85;;;;;;;;;;143727;573;46020;-69
2022/02/13 05:59:20;;;;;;;12.13;9.20;;;;;;;;;;143728;589;46010;-68
2022/02/13 06:01:47;;;;;;;18.25;10.13;;;;;;;;;;143729;608;46016;-70
2022/02/13 06:04:15;;;;;;;15.85;8.05;;;;;;;;;;143732;642;46012;-70
2022/02/13 06:06:44;;;;;;;11.07;6.47;;;;;;;;;;143729;584;46020;-69
2022/02/13 06:09:11;;;;;;;12.82;7.22;;;;;;;;;;143729;575;46916;-68
2022/02/13 06:11:39;;;;;;;9.95;6.85;;;;;;;;;;143729;581;46017;-69
2022/02/13 06:14:06;;;;;;;17.37;7.90;;;;;;;;;;143732;592;46012;-69
2022/02/13 06:16:33;;;;;;;14.52;7.43;;;;;;;;;;143729;569;46020;-69
2022/02/13 06:19:01;;;;;;;22.17;7.50;;;;;;;;;;143729;583;46022;-69
2022/02/13 06:26:35;;;;;;;13.10;6.22;;;;;;;;;;143733;577;46010;-71
2022/02/13 06:29:06;;;;;;;13.52;6.90;;;;;;;;;;143731;596;45920;-69
2022/02/13 06:31:33;;;;;;;10.25;6.47;;;;;;;;;;143726;572;47018;-68
2022/02/13 06:34:01;;;;;;;14.38;7.22;;;;;;;;;;143733;592;46012;-67
2022/02/13 06:36:31;;;;;;;11.35;6.80;;;;;;;;;;143732;566;45030;-68
2022/02/13 06:44:13;;;;;;;13.55;6.60;;;;;;;;;;143732;577;46022;-68
2022/02/13 06:46:41;;;;;;;9.80;6.12;;;;;;;;;;143730;581;46020;-70
2022/02/13 06:49:08;;;;;;;10.60;6.18;;;;;;;;;;143730;688;46920;-69
2022/02/13 06:51:37;;;;;;;11.50;5.93;;;;;;;;;;143730;627;46018;-69
2022/02/13 06:59:09;;;;;;;14.70;8.65;;;;;;;;;;143738;569;46022;-71
2022/02/13 07:01:38;;;;;;;23.77;13.73;;;;;;;;;;143729;592;46018;-70
2022/02/13 07:04:05;;;;;;;26.58;15.63;;;;;;;;;;143734;595;45023;-69
2022/02/13 07:06:32;;;;;;;33.38;18.45;;;;;;;;;;143729;590;46018;-70
2022/02/13 07:09:00;;;;;;;33.63;21.65;;;;;;;;;;143729;578;46022;-68
2022/02/13 07:11:27;;;;;;;21.92;12.27;;;;;;;;;;143731;589;45908;-68
2022/02/13 07:13:54;;;;;;;17.42;12.23;;;;;;;;;;143733;574;46012;-68
2022/02/13 07:16:21;;;;;;;26.98;15.63;;;;;;;;;;143728;575;46020;-68
2022/02/13 07:18:48;;;;;;;23.00;13.30;;;;;;;;;;143728;721;46023;-68
2022/02/13 07:21:17;;;;;;;16.62;11.10;;;;;;;;;;143731;611;46018;-68
2022/02/13 07:23:45;;;;;;;20.27;12.13;;;;;;;;;;143733;573;46012;-67
2022/02/13 07:26:12;;;;;;;19.25;12.23;;;;;;;;;;143731;635;46019;-68
2022/02/13 07:31:24;;;;;;;18.23;12.07;;;;;;;;;;143727;652;46020;-68
2022/02/13 07:33:51;;;;;;;18.30;11.57;;;;;;;;;;143732;608;46012;-68
2022/02/13 07:36:18;;;;;;;17.30;11.50;;;;;;;;;;143729;663;46020;-67
2022/02/13 07:38:45;;;;;;;15.57;10.73;;;;;;;;;;143729;596;46010;-67
2022/02/13 07:41:12;;;;;;;19.92;10.35;;;;;;;;;;143730;628;46016;-68
2022/02/13 07:43:39;;;;;;;18.42;11.32;;;;;;;;;;143734;566;45034;-67
2022/02/13 07:46:06;;;;;;;19.10;11.98;;;;;;;;;;143730;564;46018;-68
2022/02/13 07:48:33;;;;;;;20.77;12.60;;;;;;;;;;143728;688;46010;-68
2022/02/13 07:51:00;;;;;;;18.67;9.80;;;;;;;;;;143729;711;46018;-69
2022/02/13 07:53:27;;;;;;;13.93;9.65;;;;;;;;;;143732;576;46022;-68
2022/02/13 07:55:54;;;;;;;16.40;10.60;;;;;;;;;;143727;575;47031;-69
2022/02/13 07:58:21;;;;;;;19.87;13.23;;;;;;;;;;143728;573;46010;-68
2022/02/13 08:00:48;;;;;;;20.12;13.70;;;;;;;;;;143728;610;46018;-67
2022/02/13 08:03:15;;;;;;;18.58;11.77;;;;;;;;;;143732;594;46023;-68
2022/02/13 08:05:42;;;;;;;20.73;13.52;;;;;;;;;;143731;569;46018;-68
2022/02/13 08:08:09;;;;;;;23.65;14.30;;;;;;;;;;143729;578;46022;-67
2022/02/13 08:10:40;;;;;;;24.15;15.52;;;;;;;;;;143730;577;46017;-66
2022/02/13 08:13:07;;;;;;;18.52;12.63;;;;;;;;;;143734;569;46012;-67
2022/02/13 08:15:34;;;;;;;15.85;10.82;;;;;;;;;;143730;577;46018;-67
2022/02/13 08:18:19;;;;;;;20.88;14.68;;;;;;;;;;143728;569;46011;-67
2022/02/13 08:20:46;;;;;;;21.40;14.85;;;;;;;;;;143730;704;46016;-68
2022/02/13 08:23:13;;;;;;;21.00;15.20;;;;;;;;;;143733;650;46010;-67
2022/02/13 08:25:41;;;;;;;22.70;15.45;;;;;;;;;;143729;739;46019;-68
2022/02/13 08:28:08;;;;;;;30.37;17.42;;;;;;;;;;143729;615;46010;-67
2022/02/13 08:30:35;;;;;;;29.30;17.17;;;;;;;;;;143731;592;45031;-67
2022/02/13 08:33:02;;;;;;;30.20;18.65;;;;;;;;;;143732;644;46022;-68
2022/02/13 08:35:29;;;;;;;34.45;18.75;;;;;;;;;;143730;589;46018;-66
2022/02/13 08:37:56;;;;;;;34.90;21.62;;;;;;;;;;143728;625;46022;-68
2022/02/13 08:40:23;;;;;;;28.52;18.67;;;;;;;;;;143730;650;46016;-68
2022/02/13 08:42:50;;;;;;;32.17;18.33;;;;;;;;;;143732;594;46022;-67
2022/02/13 08:45:17;;;;;;;28.92;19.08;;;;;;;;;;143730;657;46018;-66
2022/02/13 08:47:44;;;;;;;26.23;17.65;;;;;;;;;;143729;585;46010;-67
2022/02/13 08:50:11;;;;;;;23.42;13.77;;;;;;;;;;143730;588;46016;-66
2022/02/13 08:52:38;;;;;;;27.17;17.52;;;;;;;;;;143734;588;45024;-67
2022/02/13 08:55:07;;;;;;;25.05;16.08;;;;;;;;;;143731;588;46019;-66
2022/02/13 08:57:35;;;;;;;21.40;14.07;;;;;;;;;;143728;591;46023;-67
2022/02/13 09:00:06;;;;;;;23.35;14.18;;;;;;;;;;143730;574;46016;-67
2022/02/13 09:02:33;;;;;;;25.30;13.80;;;;;;;;;;143733;596;46012;-68
2022/02/13 09:05:01;;;;;;;21.55;12.48;;;;;;;;;;143731;596;46031;-66
2022/02/13 09:07:28;;;;;;;20.45;12.27;;;;;;;;;;143728;578;46022;-67
2022/02/13 09:09:55;;;;;;;21.17;13.25;;;;;;;;;;143730;655;46017;-66
2022/02/13 09:12:22;;;;;;;37.92;21.95;;;;;;;;;;143734;598;45023;-66
2022/02/13 09:14:50;;;;;;;40.95;22.92;;;;;;;;;;143731;577;46018;-66
2022/02/13 09:17:17;;;;;;;36.35;19.65;;;;;;;;;;143728;574;46022;-67
2022/02/13 09:19:44;;;;;;;16.23;10.07;;;;;;;;;;143731;570;46016;-67
2022/02/13 09:22:11;;;;;;;29.35;16.95;;;;;;;;;;143732;592;46012;-67
2022/02/13 09:24:38;;;;;;;25.52;14.87;;;;;;;;;;143729;591;46020;-67
2022/02/13 09:27:05;;;;;;;21.33;12.68;;;;;;;;;;143728;584;46023;-67
2022/02/13 09:29:32;;;;;;;21.35;12.25;;;;;;;;;;143730;674;46016;-67
2022/02/13 09:31:59;;;;;;;20.65;13.23;;;;;;;;;;143733;573;46013;-66
2022/02/13 09:34:28;;;;;;;16.80;9.98;;;;;;;;;;143730;616;46018;-68
2022/02/13 09:36:56;;;;;;;19.00;12.75;;;;;;;;;;143729;660;46022;-66
2022/02/13 09:39:24;;;;;;;21.75;12.75;;;;;;;;;;143730;588;46017;-67
2022/02/13 09:41:51;;;;;;;21.58;12.52;;;;;;;;;;143732;588;46023;-66
2022/02/13 09:44:19;;;;;;;19.55;12.95;;;;;;;;;;143730;579;46018;-66
2022/02/13 09:46:46;;;;;;;21.58;13.32;;;;;;;;;;143728;576;46023;-60
2022/02/13 09:49:17;;;;;;;20.27;11.98;;;;;;;;;;143730;564;46020;-60
2022/02/13 09:51:44;;;;;;;23.58;12.98;;;;;;;;;;143732;581;46022;-60
2022/02/13 09:54:11;;;;;;;16.62;11.25;;;;;;;;;;143729;583;46020;-60
2022/02/13 09:56:38;;;;;;;19.40;13.15;;;;;;;;;;143729;582;46010;-60
2022/02/13 09:59:09;;;;;;;16.40;12.48;;;;;;;;;;143730;585;46018;-60
2022/02/13 10:01:42;;;;;;;18.58;12.05;;;;;;;;;;143734;714;45023;-60
2022/02/13 10:04:10;;;;;;;23.33;13.10;;;;;;;;;;143731;676;46018;-60
2022/02/13 10:06:41;;;;;;;20.80;12.63;;;;;;;;;;143729;564;46010;-60
2022/02/13 10:09:10;;;;;;;18.08;11.48;;;;;;;;;;143728;571;46017;-60
2022/02/13 10:11:38;;;;;;;18.67;11.12;;;;;;;;;;143733;614;46023;-60
2022/02/13 10:14:12;;;;;;;19.20;12.13;;;;;;;;;;143729;636;47018;-60
2022/02/13 10:16:52;;;;;;;19.08;12.15;;;;;;;;;;143729;560;46022;-60
2022/02/13 10:19:22;;;;;;;25.88;17.12;;;;;;;;;;143730;586;46016;-60
2022/02/13 10:21:50;;;;;;;29.63;16.08;;;;;;;;;;143734;594;45022;-60
2022/02/13 10:24:36;;;;;;;21.25;12.95;;;;;;;;;;143727;632;47020;-60
2022/02/13 10:27:15;;;;;;;17.73;11.60;;;;;;;;;;143728;584;46022;-61
2022/02/13 10:29:49;;;;;;;23.10;13.75;;;;;;;;;;143729;584;46010;-60
2022/02/13 10:32:39;;;;;;;22.25;12.82;;;;;;;;;;143732;604;46012;-61
2022/02/13 10:35:24;;;;;;;18.17;11.18;;;;;;;;;;143730;671;46018;-60
2022/02/13 10:37:58;;;;;;;21.00;11.38;;;;;;;;;;143728;591;46022;-60
2022/02/13 10:40:31;;;;;;;14.55;9.07;;;;;;;;;;143728;583;46019;-61
2022/02/13 10:43:09;;;;;;;15.20;8.85;;;;;;;;;;143733;572;46022;-60
2022/02/13 10:45:38;;;;;;;16.20;9.70;;;;;;;;;;143730;581;46018;-60
2022/02/13 10:48:07;;;;;;;17.33;10.18;;;;;;;;;;143727;590;46023;-61
2022/02/13 10:50:36;;;;;;;17.17;10.70;;;;;;;;;;143729;591;46016;-60
2022/02/13 10:53:05;;;;;;;28.60;17.83;;;;;;;;;;143730;618;46022;-61
2022/02/13 10:55:35;;;;;;;32.25;19.45;;;;;;;;;;143727;635;46021;-61
2022/02/13 10:58:03;;;;;;;25.60;16.12;;;;;;;;;;143726;641;46010;-61
2022/02/13 11:00:31;;;;;;;26.55;16.33;;;;;;;;;;143729;592;46017;-60
2022/02/13 11:03:04;;;;;;;23.60;15.02;;;;;;;;;;143730;708;46023;-60
2022/02/13 11:05:32;;;;;;;24.52;14.60;;;;;;;;;;143729;755;46018;-60
2022/02/13 11:08:09;;;;;;;19.60;11.85;;;;;;;;;;143726;634;46022;-60
2022/02/13 11:10:42;;;;;;;19.85;11.82;;;;;;;;;;143728;682;46016;-60
2022/02/13 11:13:11;;;;;;;20.77;12.88;;;;;;;;;;143731;580;46014;-60
2022/02/13 11:15:39;;;;;;;19.10;11.63;;;;;;;;;;143728;592;46019;-60
2022/02/13 11:18:08;;;;;;;24.45;13.10;;;;;;;;;;143729;564;45920;-60
2022/02/13 11:20:36;;;;;;;27.17;12.15;;;;;;;;;;143726;653;46018;-60
2022/02/13 11:23:29;;;;;;;21.65;11.98;;;;;;;;;;143730;572;46022;-60
2022/02/13 11:26:06;;;;;;;18.83;12.15;;;;;;;;;;143729;565;46018;-61
2022/02/13 11:29:01;;;;;;;16.02;10.32;;;;;;;;;;143725;598;46022;-60
2022/02/13 11:31:50;;;;;;;18.12;9.45;;;;;;;;;;143726;570;46018;-60
2022/02/13 11:34:43;;;;;;;14.55;8.75;;;;;;;;;;143728;581;46014;-60
2022/02/13 11:37:14;;;;;;;15.63;9.52;;;;;;;;;;143727;570;46022;-61
2022/02/13 11:39:45;;;;;;;14.68;9.25;;;;;;;;;;143726;582;46023;-61
2022/02/13 11:42:21;;;;;;;14.65;9.90;;;;;;;;;;143727;693;46016;-60
2022/02/13 11:44:55;;;;;;;14.77;9.25;;;;;;;;;;143732;585;45026;-61
2022/02/13 11:47:39;;;;;;;19.52;10.02;;;;;;;;;;143728;591;46019;-60
2022/02/13 11:50:21;;;;;;;16.55;9.48;;;;;;;;;;143726;595;46022;-60
2022/02/13 11:53:00;;;;;;;17.95;10.43;;;;;;;;;;143727;618;46017;-60
2022/02/13 11:55:31;;;;;;;13.68;8.80;;;;;;;;;;143731;609;46014;-60
2022/02/13 11:58:13;;;;;;;14.87;9.38;;;;;;;;;;143729;590;46018;-60
2022/02/13 12:00:43;;;;;;;13.88;8.73;;;;;;;;;;143726;645;46013;-61
2022/02/13 12:03:17;;;;;;;21.52;12.13;;;;;;;;;;143726;585;46019;-60
2022/02/13 12:05:51;;;;;;;24.23;14.50;;;;;;;;;;143728;579;46022;-60
2022/02/13 12:08:24;;;;;;;22.58;13.35;;;;;;;;;;143726;572;46020;-61
2022/02/13 12:11:06;;;;;;;22.02;12.45;;;;;;;;;;143728;695;46012;-60
2022/02/13 12:13:37;;;;;;;16.85;11.35;;;;;;;;;;143725;638;46018;-60
2022/02/13 12:16:08;;;;;;;19.25;12.32;;;;;;;;;;143730;614;45023;-60
2022/02/13 12:18:36;;;;;;;17.00;11.85;;;;;;;;;;143727;592;47018;-60
2022/02/13 12:21:05;;;;;;;16.83;10.65;;;;;;;;;;143727;569;46034;-60
2022/02/13 12:23:33;;;;;;;17.62;11.43;;;;;;;;;;143727;572;46019;-60
2022/02/13 12:26:00;;;;;;;16.67;11.55;;;;;;;;;;143729;586;46022;-61
2022/02/13 12:28:33;;;;;;;17.08;11.65;;;;;;;;;;143729;570;46018;-60
2022/02/13 12:31:03;;;;;;;17.55;11.90;;;;;;;;;;143727;653;46011;-60
2022/02/13 12:33:31;;;;;;;19.17;12.35;;;;;;;;;;143726;591;46018;-60
2022/02/13 12:35:59;;;;;;;18.25;12.70;;;;;;;;;;143731;606;46022;-60
2022/02/13 12:38:29;;;;;;;20.90;12.10;;;;;;;;;;143728;575;46019;-60
2022/02/13 12:41:00;;;;;;;14.93;9.93;;;;;;;;;;143727;585;46010;-61
2022/02/13 12:43:28;;;;;;;15.52;9.95;;;;;;;;;;143726;624;46018;-60
2022/02/13 12:45:58;;;;;;;17.17;10.45;;;;;;;;;;143731;591;46022;-60
2022/02/13 12:48:27;;;;;;;15.05;10.25;;;;;;;;;;143729;572;46018;-60
2022/02/13 12:50:56;;;;;;;17.10;10.73;;;;;;;;;;143727;582;46010;-60
2022/02/13 12:53:26;;;;;;;14.55;9.52;;;;;;;;;;143727;690;46018;-60
2022/02/13 12:56:00;;;;;;;9.95;6.43;;;;;;;;;;143730;603;46010;-60
2022/02/13 12:58:37;;;;;;;16.02;8.07;;;;;;;;;;143729;641;46018;-60
2022/02/13 13:01:05;;;;;;;14.27;8.77;;;;;;;;;;143726;565;46920;-60
2022/02/13 13:03:36;;;;;;;15.35;8.90;;;;;;;;;;143726;580;46018;-60
2022/02/13 13:06:03;;;;;;;11.50;6.72;;;;;;;;;;143731;635;46022;-60
2022/02/13 13:08:42;;;;;;;13.52;7.75;;;;;;;;;;143727;572;46019;-60
2022/02/13 13:11:09;;;;;;;8.98;6.28;;;;;;;;;;143727;698;46997;-60
2022/02/13 13:13:38;;;;;;;11.80;6.30;;;;;;;;;;143727;563;46018;-60
2022/02/13 13:16:27;;;;;;;10.75;6.80;;;;;;;;;;143731;583;46010;-60
2022/02/13 13:18:56;;;;;;;9.93;6.50;;;;;;;;;;143727;576;46018;-60
2022/02/13 13:21:43;;;;;;;11.82;6.65;;;;;;;;;;143728;614;46010;-60
2022/02/13 13:24:25;;;;;;;16.23;8.38;;;;;;;;;;143729;572;46019;-60
2022/02/13 13:27:06;;;;;;;10.93;6.22;;;;;;;;;;143730;598;46022;-60
2022/02/13 13:29:43;;;;;;;14.52;7.40;;;;;;;;;;143727;628;46019;-60
2022/02/13 13:32:23;;;;;;;11.75;7.07;;;;;;;;;;143727;569;46010;-60
2022/02/13 13:34:55;;;;;;;11.63;6.95;;;;;;;;;;143726;621;46018;-60
2022/02/13 13:37:35;;;;;;;16.42;7.45;;;;;;;;;;143732;596;45024;-60
2022/02/13 13:40:24;;;;;;;13.90;7.50;;;;;;;;;;143729;564;46018;-59
2022/02/13 13:43:11;;;;;;;14.02;7.65;;;;;;;;;;143727;603;46010;-60
2022/02/13 13:45:43;;;;;;;12.68;7.53;;;;;;;;;;143726;659;46019;-60
2022/02/13 13:48:19;;;;;;;12.15;7.25;;;;;;;;;;143729;565;46022;-60
2022/02/13 13:50:48;;;;;;;17.85;7.35;;;;;;;;;;143727;569;46020;-60
2022/02/13 13:53:17;;;;;;;14.23;6.93;;;;;;;;;;143727;580;46011;-60
2022/02/13 13:55:48;;;;;;;12.20;6.40;;;;;;;;;;143727;585;46018;-59
2022/02/13 13:58:19;;;;;;;11.18;6.30;;;;;;;;;;143729;591;46022;-60
2022/02/13 14:00:46;;;;;;;12.88;6.30;;;;;;;;;;143727;589;46020;-59
2022/02/13 14:03:13;;;;;;;11.45;5.78;;;;;;;;;;143728;608;46010;-60
2022/02/13 14:05:44;;;;;;;12.10;6.60;;;;;;;;;;143726;579;46018;-60
2022/02/13 14:08:11;;;;;;;9.98;5.90;;;;;;;;;;143729;608;46022;-60
2022/02/13 14:10:40;;;;;;;12.35;6.45;;;;;;;;;;143728;591;46018;-60
2022/02/13 14:13:09;;;;;;;9.07;5.90;;;;;;;;;;143727;612;46010;-59
2022/02/13 14:15:36;;;;;;;13.80;7.10;;;;;;;;;;143727;609;46019;-59
2022/02/13 14:18:04;;;;;;;11.60;6.25;;;;;;;;;;143730;569;46022;-59
2022/02/13 14:20:31;;;;;;;7.20;5.35;;;;;;;;;;143727;625;46018;-60
2022/02/13 14:22:58;;;;;;;10.40;6.30;;;;;;;;;;143727;565;46010;-59
2022/02/13 14:25:25;;;;;;;10.73;5.57;;;;;;;;;;143727;667;46018;-60
2022/02/13 14:27:52;;;;;;;10.68;5.50;;;;;;;;;;143728;599;46022;-59
2022/02/13 14:30:19;;;;;;;9.65;5.50;;;;;;;;;;143728;586;46019;-60
2022/02/13 14:32:46;;;;;;;8.35;4.62;;;;;;;;;;143728;576;46010;-60
2022/02/13 14:35:13;;;;;;;10.18;5.20;;;;;;;;;;143726;612;46018;-60
2022/02/13 14:37:44;;;;;;;12.05;6.30;;;;;;;;;;143730;595;46023;-60
2022/02/13 14:40:12;;;;;;;16.80;5.70;;;;;;;;;;143728;582;46018;-60
2022/02/13 14:42:39;;;;;;;10.98;5.97;;;;;;;;;;143728;608;46010;-60
2022/02/13 14:45:08;;;;;;;10.07;6.00;;;;;;;;;;143729;611;46018;-59
2022/02/13 14:47:35;;;;;;;11.95;5.93;;;;;;;;;;143732;583;45023;-59
2022/02/13 14:50:02;;;;;;;8.88;5.65;;;;;;;;;;143729;658;46018;-59
2022/02/13 14:52:29;;;;;;;9.20;5.90;;;;;;;;;;143727;603;46011;-60
2022/02/13 14:54:56;;;;;;;11.20;5.25;;;;;;;;;;143729;564;46018;-59
2022/02/13 14:57:22;;;;;;;9.82;5.85;;;;;;;;;;143731;587;46012;-59
2022/02/13 14:59:50;;;;;;;13.95;5.90;;;;;;;;;;143728;672;46019;-59
2022/02/13 15:02:17;;;;;;;12.07;5.80;;;;;;;;;;143726;602;47010;-59
2022/02/13 15:04:44;;;;;;;10.40;5.85;;;;;;;;;;143728;628;46018;-59
2022/02/13 15:07:10;;;;;;;11.88;6.37;;;;;;;;;;143730;626;46022;-59